createdAt,value
2022-10-05T00:00:35.010Z,96.67
2022-10-05T00:01:35.026Z,96.47
2022-10-05T00:02:34.989Z,96.36
2022-10-05T00:03:34.992Z,96.21
2022-10-05T00:04:34.967Z,95.90
2022-10-05T00:05:35.006Z,95.80
2022-10-05T00:06:34.947Z,95.59
2022-10-05T00:07:34.939Z,95.80
2022-10-05T00:08:34.928Z,95.59
2022-10-05T00:09:34.947Z,95.49
2022-10-05T00:10:34.909Z,95.64
2022-10-05T00:11:34.900Z,95.32
2022-10-05T00:12:34.885Z,95.12
2022-10-05T00:13:34.876Z,94.60
2022-10-05T00:14:34.878Z,94.29
2022-10-05T00:15:34.857Z,94.40
2022-10-05T00:16:34.909Z,94.71
2022-10-05T00:17:34.831Z,94.40
2022-10-05T00:18:34.820Z,94.50
2022-10-05T00:19:34.810Z,95.12
2022-10-05T00:20:34.809Z,95.12
2022-10-05T00:21:34.787Z,95.32
2022-10-05T00:22:34.778Z,94.50
2022-10-05T00:23:34.764Z,95.02
2022-10-05T00:24:34.755Z,94.71
2022-10-05T00:25:34.747Z,94.40
2022-10-05T00:26:34.739Z,94.50
2022-10-05T00:27:34.723Z,94.50
2022-10-05T00:28:34.759Z,94.71
2022-10-05T00:29:34.698Z,94.40
2022-10-05T00:30:34.697Z,94.50
2022-10-05T00:31:34.741Z,94.29
2022-10-05T00:32:34.667Z,94.60
2022-10-05T00:33:34.661Z,94.60
2022-10-05T00:34:34.646Z,94.92
2022-10-05T00:35:34.634Z,95.64
2022-10-05T00:36:34.634Z,95.32
2022-10-05T00:37:34.615Z,95.12
2022-10-05T00:38:34.602Z,94.60
2022-10-05T00:39:34.591Z,94.81
2022-10-05T00:40:34.591Z,94.81
2022-10-05T00:41:34.588Z,94.71
2022-10-05T00:42:34.558Z,94.40
2022-10-05T00:43:34.547Z,94.50
2022-10-05T00:44:34.542Z,94.03
2022-10-05T00:45:34.601Z,94.65
2022-10-05T00:46:34.524Z,95.06
2022-10-05T00:47:34.509Z,95.78
2022-10-05T00:48:34.507Z,95.78
2022-10-05T00:49:34.486Z,95.78
2022-10-05T00:50:34.471Z,95.99
2022-10-05T00:51:34.467Z,96.20
2022-10-05T00:52:34.450Z,96.51
2022-10-05T00:53:34.462Z,96.30
2022-10-05T00:54:34.435Z,96.41
2022-10-05T00:55:34.421Z,96.72
2022-10-05T00:56:34.408Z,96.61
2022-10-05T00:57:34.398Z,96.41
2022-10-05T00:58:34.384Z,95.99
2022-10-05T00:59:34.389Z,95.78
2022-10-05T01:00:34.363Z,95.57
2022-10-05T01:01:34.451Z,95.06
2022-10-05T01:02:36.883Z,95.27
2022-10-05T01:03:34.336Z,95.37
2022-10-05T01:04:34.336Z,95.37
2022-10-05T01:05:34.314Z,95.57
2022-10-05T01:06:34.300Z,95.68
2022-10-05T01:07:34.297Z,95.78
2022-10-05T01:08:34.278Z,95.68
2022-10-05T01:09:34.279Z,95.99
2022-10-05T01:10:34.281Z,96.14
2022-10-05T01:11:34.247Z,96.24
2022-10-05T01:12:34.233Z,96.14
2022-10-05T01:13:34.230Z,96.24
2022-10-05T01:14:34.226Z,96.24
2022-10-05T01:15:34.205Z,96.34
2022-10-05T01:16:34.243Z,96.55
2022-10-05T01:17:34.183Z,96.76
2022-10-05T01:18:34.174Z,96.97
2022-10-05T01:19:34.175Z,96.86
2022-10-05T01:20:34.157Z,97.07
2022-10-05T01:21:34.138Z,96.55
2022-10-05T01:22:34.130Z,96.14
2022-10-05T01:23:34.120Z,96.34
2022-10-05T01:24:34.108Z,96.45
2022-10-05T01:25:34.114Z,96.55
2022-10-05T01:26:34.098Z,96.34
2022-10-05T01:27:34.071Z,96.97
2022-10-05T01:28:34.101Z,97.28
2022-10-05T01:29:34.053Z,97.07
2022-10-05T01:30:34.042Z,96.76
2022-10-05T01:31:34.121Z,96.86
2022-10-05T01:32:34.024Z,97.07
2022-10-05T01:33:34.011Z,97.32
2022-10-05T01:34:34.007Z,97.32
2022-10-05T01:35:33.987Z,97.01
2022-10-05T01:36:33.986Z,97.32
2022-10-05T01:37:33.963Z,97.01
2022-10-05T01:38:33.957Z,96.80
2022-10-05T01:39:33.944Z,96.59
2022-10-05T01:40:33.936Z,96.39
2022-10-05T01:41:33.956Z,96.39
2022-10-05T01:42:33.914Z,96.19
2022-10-05T01:43:33.900Z,96.59
2022-10-05T01:44:33.893Z,96.70
2022-10-05T01:45:33.894Z,96.91
2022-10-05T01:46:33.892Z,96.70
2022-10-05T01:47:33.858Z,96.19
2022-10-05T01:48:33.857Z,96.49
2022-10-05T01:49:33.835Z,96.19
2022-10-05T01:50:33.828Z,95.77
2022-10-05T01:51:33.824Z,95.67
2022-10-05T01:52:33.818Z,95.87
2022-10-05T01:53:33.796Z,95.98
2022-10-05T01:54:33.789Z,95.77
2022-10-05T01:55:33.770Z,95.71
2022-10-05T01:56:33.762Z,95.92
2022-10-05T01:57:33.767Z,95.71
2022-10-05T01:58:33.740Z,95.09
2022-10-05T01:59:33.726Z,94.89
2022-10-05T02:00:33.723Z,94.68
2022-10-05T02:01:33.730Z,94.82
2022-10-05T02:02:33.720Z,95.54
2022-10-05T02:03:33.696Z,95.96
2022-10-05T02:05:03.392Z,96.17
2022-10-05T02:05:33.673Z,96.37
2022-10-05T02:06:33.652Z,96.58
2022-10-05T02:07:33.649Z,96.69
2022-10-05T02:08:33.640Z,96.69
2022-10-05T02:09:33.622Z,95.86
2022-10-05T02:10:33.609Z,95.86
2022-10-05T02:11:33.598Z,96.27
2022-10-05T02:12:33.592Z,95.96
2022-10-05T02:13:33.588Z,95.65
2022-10-05T02:14:33.568Z,95.75
2022-10-05T02:15:33.608Z,95.96
2022-10-05T02:16:33.549Z,96.06
2022-10-05T02:17:33.541Z,96.17
2022-10-05T02:18:33.536Z,95.96
2022-10-05T02:19:33.520Z,95.96
2022-10-05T02:20:33.503Z,96.27
2022-10-05T02:21:33.492Z,96.37
2022-10-05T02:22:33.480Z,96.48
2022-10-05T02:23:33.470Z,96.37
2022-10-05T02:24:33.480Z,96.62
2022-10-05T02:25:33.451Z,96.73
2022-10-05T02:26:33.440Z,96.94
2022-10-05T02:27:33.424Z,97.14
2022-10-05T02:28:33.523Z,97.35
2022-10-05T02:29:33.403Z,97.45
2022-10-05T02:30:33.405Z,97.56
2022-10-05T02:31:33.476Z,97.56
2022-10-05T02:32:33.380Z,97.56
2022-10-05T02:33:33.370Z,97.45
2022-10-05T02:34:33.361Z,97.35
2022-10-05T02:35:33.346Z,97.25
2022-10-05T02:36:33.332Z,96.73
2022-10-05T02:37:33.318Z,96.62
2022-10-05T02:38:33.309Z,96.73
2022-10-05T02:39:33.296Z,96.52
2022-10-05T02:40:33.300Z,96.62
2022-10-05T02:41:33.274Z,96.88
2022-10-05T02:42:33.265Z,96.57
2022-10-05T02:43:33.253Z,97.14
2022-10-05T02:44:33.245Z,97.35
2022-10-05T02:45:33.289Z,96.83
2022-10-05T02:46:33.236Z,96.62
2022-10-05T02:47:33.207Z,96.83
2022-10-05T02:48:33.199Z,96.47
2022-10-05T02:49:33.191Z,96.98
2022-10-05T02:50:32.176Z,97.09
2022-10-05T02:51:33.186Z,97.39
2022-10-05T02:52:33.159Z,97.09
2022-10-05T02:53:33.145Z,97.19
2022-10-05T02:54:33.141Z,97.19
2022-10-05T02:55:33.128Z,97.09
2022-10-05T02:56:33.115Z,97.09
2022-10-05T02:57:33.119Z,96.88
2022-10-05T02:58:33.096Z,96.98
2022-10-05T02:59:33.080Z,96.98
2022-10-05T03:00:33.072Z,96.78
2022-10-05T03:01:33.116Z,96.57
2022-10-05T03:02:33.079Z,96.47
2022-10-05T03:03:33.049Z,96.36
2022-10-05T03:04:33.029Z,95.84
2022-10-05T03:05:33.023Z,95.53
2022-10-05T03:06:33.011Z,95.95
2022-10-05T03:07:32.998Z,95.53
2022-10-05T03:08:33.008Z,95.43
2022-10-05T03:09:32.978Z,96.15
2022-10-05T03:10:32.970Z,96.05
2022-10-05T03:11:32.956Z,96.57
2022-10-05T03:12:32.953Z,96.67
2022-10-05T03:13:32.933Z,96.88
2022-10-05T03:14:32.937Z,96.88
2022-10-05T03:15:32.917Z,96.98
2022-10-05T03:16:32.959Z,96.88
2022-10-05T03:17:32.889Z,97.13
2022-10-05T03:18:32.893Z,97.44
2022-10-05T03:19:32.885Z,97.44
2022-10-05T03:20:32.867Z,96.82
2022-10-05T03:21:32.851Z,97.44
2022-10-05T03:22:32.846Z,97.81
2022-10-05T03:23:32.855Z,97.65
2022-10-05T03:24:32.826Z,97.34
2022-10-05T03:25:32.807Z,97.55
2022-10-05T03:26:32.807Z,97.34
2022-10-05T03:27:32.791Z,97.44
2022-10-05T03:28:32.864Z,97.71
2022-10-05T03:29:32.773Z,97.81
2022-10-05T03:30:32.759Z,97.60
2022-10-05T03:31:32.822Z,97.50
2022-10-05T03:32:32.738Z,97.60
2022-10-05T03:33:32.734Z,97.81
2022-10-05T03:34:32.727Z,97.60
2022-10-05T03:35:32.718Z,97.50
2022-10-05T03:36:32.704Z,96.98
2022-10-05T03:37:32.684Z,96.88
2022-10-05T03:38:32.676Z,96.88
2022-10-05T03:39:32.673Z,96.26
2022-10-05T03:40:32.654Z,96.05
2022-10-05T03:41:32.660Z,96.36
2022-10-05T03:42:32.633Z,96.15
2022-10-05T03:43:32.617Z,95.99
2022-10-05T03:44:32.618Z,96.72
2022-10-05T03:45:32.598Z,96.51
2022-10-05T03:46:32.661Z,96.51
2022-10-05T03:47:32.588Z,96.09
2022-10-05T03:48:32.570Z,96.61
2022-10-05T03:49:32.554Z,96.61
2022-10-05T03:50:32.565Z,96.51
2022-10-05T03:51:32.535Z,96.51
2022-10-05T03:52:32.529Z,96.30
2022-10-05T03:53:32.516Z,96.51
2022-10-05T03:54:32.509Z,96.61
2022-10-05T03:55:32.507Z,96.30
2022-10-05T03:56:32.490Z,96.51
2022-10-05T03:57:32.484Z,96.41
2022-10-05T03:58:32.465Z,96.20
2022-10-05T03:59:32.958Z,96.41
2022-10-05T04:00:32.446Z,96.30
2022-10-05T04:01:32.491Z,96.51
2022-10-05T04:02:32.465Z,96.72
2022-10-05T04:03:32.409Z,96.82
2022-10-05T04:04:32.403Z,96.82
2022-10-05T04:05:32.389Z,96.82
2022-10-05T04:06:32.382Z,96.92
2022-10-05T04:07:32.387Z,96.61
2022-10-05T04:08:32.361Z,96.82
2022-10-05T04:09:32.347Z,96.61
2022-10-05T04:10:32.343Z,96.61
2022-10-05T04:11:32.326Z,96.41
2022-10-05T04:12:32.320Z,96.51
2022-10-05T04:13:32.314Z,96.47
2022-10-05T04:14:32.295Z,96.20
2022-10-05T04:15:32.346Z,95.89
2022-10-05T04:16:32.278Z,95.99
2022-10-05T04:17:32.260Z,96.09
2022-10-05T04:18:32.268Z,96.36
2022-10-05T04:19:32.243Z,96.72
2022-10-05T04:20:32.237Z,96.51
2022-10-05T04:21:32.222Z,96.82
2022-10-05T04:22:32.213Z,97.09
2022-10-05T04:23:32.218Z,97.19
2022-10-05T04:24:32.192Z,96.98
2022-10-05T04:25:32.180Z,96.57
2022-10-05T04:26:32.172Z,96.57
2022-10-05T04:27:32.164Z,96.78
2022-10-05T04:28:32.610Z,96.78
2022-10-05T04:29:32.150Z,96.88
2022-10-05T04:30:32.128Z,96.47
2022-10-05T04:31:32.201Z,95.57
2022-10-05T04:32:32.121Z,96.51
2022-10-05T04:33:32.096Z,96.72
2022-10-05T04:34:32.100Z,95.78
2022-10-05T04:35:32.077Z,95.47
2022-10-05T04:36:32.070Z,95.78
2022-10-05T04:37:32.057Z,96.09
2022-10-05T04:38:32.048Z,96.20
2022-10-05T04:39:32.050Z,96.41
2022-10-05T04:40:32.049Z,96.61
2022-10-05T04:41:32.017Z,96.41
2022-10-05T04:42:32.004Z,96.30
2022-10-05T04:43:31.991Z,96.51
2022-10-05T04:44:31.987Z,96.92
2022-10-05T04:45:31.978Z,97.13
2022-10-05T04:46:32.005Z,96.82
2022-10-05T04:47:31.950Z,96.20
2022-10-05T04:48:31.945Z,96.30
2022-10-05T04:49:31.928Z,96.20
2022-10-05T04:50:31.934Z,96.30
2022-10-05T04:51:31.921Z,96.41
2022-10-05T04:52:31.844Z,96.51
2022-10-05T04:53:31.890Z,96.72
2022-10-05T04:54:31.848Z,97.13
2022-10-05T04:55:31.811Z,97.34
2022-10-05T04:56:31.855Z,97.03
2022-10-05T04:57:31.849Z,96.82
2022-10-05T04:58:31.837Z,96.61
2022-10-05T04:59:31.782Z,96.41
2022-10-05T05:00:31.841Z,96.61
2022-10-05T05:01:31.769Z,96.51
2022-10-05T05:02:31.748Z,95.89
2022-10-05T05:03:31.814Z,96.09
2022-10-05T05:04:31.770Z,95.99
2022-10-05T05:05:31.714Z,95.78
2022-10-05T05:06:31.698Z,96.41
2022-10-05T05:07:31.692Z,96.45
2022-10-05T05:08:31.680Z,96.55
2022-10-05T05:09:31.667Z,96.76
2022-10-05T05:10:31.664Z,96.66
2022-10-05T05:11:31.651Z,96.66
2022-10-05T05:12:31.635Z,96.97
2022-10-05T05:13:31.622Z,97.07
2022-10-05T05:14:31.629Z,97.17
2022-10-05T05:15:31.604Z,96.66
2022-10-05T05:16:31.681Z,96.24
2022-10-05T05:17:31.579Z,96.66
2022-10-05T05:18:31.574Z,97.07
2022-10-05T05:19:31.559Z,96.76
2022-10-05T05:20:31.564Z,96.14
2022-10-05T05:21:31.537Z,96.24
2022-10-05T05:22:31.546Z,96.03
2022-10-05T05:23:31.514Z,95.83
2022-10-05T05:24:31.517Z,96.97
2022-10-05T05:25:31.495Z,97.17
2022-10-05T05:26:33.574Z,97.28
2022-10-05T05:27:31.478Z,97.38
2022-10-05T05:28:31.571Z,96.97
2022-10-05T05:29:31.464Z,96.76
2022-10-05T05:30:31.443Z,96.55
2022-10-05T05:31:31.489Z,96.55
2022-10-05T05:32:31.427Z,97.07
2022-10-05T05:33:31.415Z,97.07
2022-10-05T05:34:31.399Z,96.97
2022-10-05T05:35:31.405Z,97.07
2022-10-05T05:36:31.377Z,96.86
2022-10-05T05:37:31.377Z,96.86
2022-10-05T05:38:31.357Z,97.07
2022-10-05T05:39:31.352Z,97.17
2022-10-05T05:40:31.336Z,97.17
2022-10-05T05:41:31.338Z,96.86
2022-10-05T05:42:31.316Z,96.55
2022-10-05T05:43:31.308Z,95.83
2022-10-05T05:44:34.251Z,96.34
2022-10-05T05:45:31.292Z,96.41
2022-10-05T05:46:58.425Z,95.89
2022-10-05T05:47:31.415Z,95.89
2022-10-05T05:48:31.267Z,95.89
2022-10-05T05:49:31.256Z,95.57
2022-10-05T05:50:31.233Z,95.16
2022-10-05T05:51:31.246Z,95.57
2022-10-05T05:52:31.217Z,95.89
2022-10-05T05:53:31.203Z,95.99
2022-10-05T05:54:31.210Z,95.78
2022-10-05T05:55:31.181Z,95.57
2022-10-05T05:56:31.170Z,95.57
2022-10-05T05:57:31.168Z,95.37
2022-10-05T05:58:31.158Z,95.68
2022-10-05T05:59:31.151Z,95.78
2022-10-05T06:00:31.135Z,95.68
2022-10-05T06:01:33.657Z,95.37
2022-10-05T06:02:31.263Z,95.89
2022-10-05T06:03:31.111Z,96.20
2022-10-05T06:04:31.080Z,96.26
2022-10-05T06:05:31.074Z,96.26
2022-10-05T06:06:31.064Z,96.36
2022-10-05T06:07:31.054Z,96.47
2022-10-05T06:08:31.053Z,96.36
2022-10-05T06:09:31.032Z,96.21
2022-10-05T06:10:31.019Z,95.90
2022-10-05T06:11:31.018Z,95.44
2022-10-05T06:12:31.006Z,95.34
2022-10-05T06:13:31.014Z,95.34
2022-10-05T06:14:31.022Z,95.14
2022-10-05T06:15:30.969Z,95.14
2022-10-05T06:16:31.032Z,95.24
2022-10-05T06:17:30.948Z,95.34
2022-10-05T06:18:30.948Z,95.24
2022-10-05T06:19:30.939Z,95.24
2022-10-05T06:20:30.915Z,95.29
2022-10-05T06:21:30.904Z,95.09
2022-10-05T06:22:30.893Z,94.98
2022-10-05T06:23:30.888Z,94.57
2022-10-05T06:24:30.885Z,94.01
2022-10-05T06:25:30.865Z,93.60
2022-10-05T06:26:30.849Z,93.14
2022-10-05T06:27:30.845Z,92.93
2022-10-05T06:28:30.890Z,92.83
2022-10-05T06:29:30.839Z,92.48
2022-10-05T06:30:30.806Z,91.75
2022-10-05T06:31:30.844Z,91.40
2022-10-05T06:32:30.787Z,90.89
2022-10-05T06:33:30.777Z,90.12
2022-10-05T06:34:30.763Z,90.28
2022-10-05T06:35:30.766Z,88.90
2022-10-05T06:36:30.755Z,87.73
2022-10-05T06:37:30.736Z,87.27
2022-10-05T06:38:30.722Z,87.48
2022-10-05T06:39:30.715Z,87.44
2022-10-05T06:40:30.711Z,87.34
2022-10-05T06:41:30.695Z,86.79
2022-10-05T06:42:30.684Z,86.88
2022-10-05T06:43:30.672Z,87.19
2022-10-05T06:44:30.659Z,87.51
2022-10-05T06:45:30.697Z,87.30
2022-10-05T06:46:30.640Z,87.15
2022-10-05T06:47:30.637Z,86.50
2022-10-05T06:48:30.616Z,86.25
2022-10-05T06:49:30.606Z,85.84
2022-10-05T06:50:30.594Z,86.00
2022-10-05T06:51:30.585Z,85.46
2022-10-05T06:52:30.584Z,85.04
2022-10-05T06:53:30.584Z,84.74
2022-10-05T06:54:30.551Z,84.39
2022-10-05T06:55:30.546Z,84.28
2022-10-05T06:56:30.540Z,84.25
2022-10-05T06:57:30.530Z,84.31
2022-10-05T06:58:30.509Z,84.41
2022-10-05T06:59:30.500Z,83.65
2022-10-05T07:00:30.496Z,83.72
2022-10-05T07:01:30.537Z,83.72
2022-10-05T07:02:30.507Z,84.64
2022-10-05T07:03:30.459Z,85.63
2022-10-05T07:04:34.643Z,84.46
2022-10-05T07:05:30.450Z,83.81
2022-10-05T07:06:30.421Z,83.66
2022-10-05T07:07:30.423Z,82.84
2022-10-05T07:08:30.400Z,82.91
2022-10-05T07:09:30.391Z,82.26
2022-10-05T07:10:30.386Z,81.34
2022-10-05T07:11:30.370Z,81.44
2022-10-05T07:12:30.358Z,81.13
2022-10-05T07:13:30.358Z,80.38
2022-10-05T07:14:30.342Z,80.04
2022-10-05T07:15:30.327Z,79.83
2022-10-05T07:16:30.601Z,79.22
2022-10-05T07:17:30.305Z,79.02
2022-10-05T07:18:30.291Z,78.98
2022-10-05T07:19:30.294Z,78.20
2022-10-05T07:20:30.271Z,79.25
2022-10-05T07:21:30.262Z,80.04
2022-10-05T07:22:33.290Z,79.69
2022-10-05T07:23:30.243Z,79.69
2022-10-05T07:24:30.226Z,78.88
2022-10-05T07:25:30.219Z,78.64
2022-10-05T07:26:30.262Z,78.02
2022-10-05T07:27:30.195Z,76.56
2022-10-05T07:28:30.282Z,77.11
2022-10-05T07:29:30.178Z,78.23
2022-10-05T07:30:30.198Z,77.98
2022-10-05T07:31:30.157Z,77.64
2022-10-05T07:32:30.151Z,75.37
2022-10-05T07:33:30.144Z,75.16
2022-10-05T07:34:30.120Z,75.43
2022-10-05T07:35:30.113Z,74.99
2022-10-05T07:36:30.106Z,73.33
2022-10-05T07:37:30.092Z,72.48
2022-10-05T07:38:30.082Z,71.43
2022-10-05T07:39:55.368Z,70.38
2022-10-05T07:40:30.058Z,69.57
2022-10-05T07:41:30.043Z,68.93
2022-10-05T07:42:30.032Z,69.74
2022-10-05T07:43:45.383Z,69.71
2022-10-05T07:44:30.019Z,69.10
2022-10-05T07:45:30.098Z,68.26
2022-10-05T07:46:30.003Z,67.78
2022-10-05T07:47:29.978Z,68.29
2022-10-05T07:48:29.963Z,67.72
2022-10-05T07:49:29.958Z,67.61
2022-10-05T07:50:29.941Z,66.50
2022-10-05T07:51:29.933Z,66.30
2022-10-05T07:52:34.332Z,66.94
2022-10-05T07:53:29.910Z,67.85
2022-10-05T07:54:29.899Z,68.15
2022-10-05T07:55:29.903Z,68.32
2022-10-05T07:56:29.879Z,67.68
2022-10-05T07:57:29.881Z,66.97
2022-10-05T07:58:29.855Z,67.28
2022-10-05T07:59:29.847Z,66.44
2022-10-05T08:00:29.832Z,64.99
2022-10-05T08:01:29.921Z,63.64
2022-10-05T08:02:29.949Z,63.78
2022-10-05T08:03:29.827Z,64.25
2022-10-05T08:04:29.790Z,64.02
2022-10-05T08:05:29.794Z,63.71
2022-10-05T08:06:29.768Z,63.51
2022-10-05T08:07:29.774Z,63.21
2022-10-05T08:08:29.743Z,64.25
2022-10-05T08:09:29.747Z,65.56
2022-10-05T08:10:29.726Z,65.56
2022-10-05T08:11:29.714Z,65.16
2022-10-05T08:12:29.703Z,64.02
2022-10-05T08:13:29.707Z,63.92
2022-10-05T08:14:29.714Z,62.40
2022-10-05T08:15:29.676Z,63.75
2022-10-05T08:16:29.705Z,63.31
2022-10-05T08:17:29.657Z,63.10
2022-10-05T08:18:29.658Z,62.77
2022-10-05T08:19:29.638Z,61.73
2022-10-05T08:20:29.617Z,62.21
2022-10-05T08:21:29.605Z,60.26
2022-10-05T08:22:29.594Z,59.86
2022-10-05T08:23:29.583Z,59.96
2022-10-05T08:24:29.581Z,59.96
2022-10-05T08:25:29.565Z,59.22
2022-10-05T08:26:29.553Z,59.63
2022-10-05T08:27:29.542Z,60.24
2022-10-05T08:28:29.562Z,61.44
2022-10-05T08:29:29.528Z,61.27
2022-10-05T08:30:29.506Z,60.36
2022-10-05T08:31:29.551Z,60.26
2022-10-05T08:32:29.496Z,59.86
2022-10-05T08:33:29.490Z,59.83
2022-10-05T08:34:29.468Z,60.16
2022-10-05T08:35:29.476Z,60.97
2022-10-05T08:36:29.513Z,61.37
2022-10-05T08:37:29.435Z,61.24
2022-10-05T08:38:29.423Z,60.31
2022-10-05T08:39:29.409Z,60.28
2022-10-05T08:40:29.400Z,59.07
2022-10-05T08:41:29.398Z,59.17
2022-10-05T08:42:29.399Z,59.34
2022-10-05T08:43:34.347Z,58.09
2022-10-05T08:44:29.360Z,59.09
2022-10-05T08:45:29.347Z,57.93
2022-10-05T08:46:29.385Z,58.31
2022-10-05T08:47:29.333Z,56.80
2022-10-05T08:48:29.323Z,57.50
2022-10-05T08:49:34.224Z,55.33
2022-10-05T08:50:29.293Z,55.61
2022-10-05T08:51:29.281Z,54.78
2022-10-05T08:52:29.324Z,53.75
2022-10-05T08:53:29.265Z,53.47
2022-10-05T08:54:28.239Z,54.50
2022-10-05T08:55:29.235Z,55.21
2022-10-05T08:56:29.238Z,53.25
2022-10-05T08:57:29.225Z,52.44
2022-10-05T08:58:29.213Z,52.67
2022-10-05T08:59:29.195Z,53.67
2022-10-05T09:00:29.307Z,53.80
2022-10-05T09:01:29.228Z,54.91
2022-10-05T09:02:29.246Z,55.00
2022-10-05T09:03:34.198Z,53.90
2022-10-05T09:04:29.141Z,53.55
2022-10-05T09:05:29.130Z,52.64
2022-10-05T09:06:29.115Z,53.05
2022-10-05T09:07:29.108Z,53.22
2022-10-05T09:08:29.102Z,51.29
2022-10-05T09:09:29.084Z,51.87
2022-10-05T09:10:29.083Z,51.79
2022-10-05T09:11:29.066Z,53.22
2022-10-05T09:12:29.054Z,54.45
2022-10-05T09:13:29.041Z,53.77
2022-10-05T09:14:29.045Z,54.48
2022-10-05T09:15:29.033Z,54.17
2022-10-05T09:16:29.004Z,53.88
2022-10-05T09:17:28.997Z,53.88
2022-10-05T09:18:28.986Z,54.65
2022-10-05T09:19:28.991Z,53.45
2022-10-05T09:20:28.969Z,53.82
2022-10-05T09:21:28.955Z,52.89
2022-10-05T09:22:28.942Z,52.37
2022-10-05T09:23:28.933Z,53.37
2022-10-05T09:24:28.925Z,53.59
2022-10-05T09:25:28.924Z,53.30
2022-10-05T09:26:28.908Z,51.87
2022-10-05T09:27:28.891Z,52.92
2022-10-05T09:28:28.931Z,53.50
2022-10-05T09:29:28.867Z,53.88
2022-10-05T09:30:28.851Z,54.78
2022-10-05T09:31:28.931Z,54.88
2022-10-05T09:32:28.830Z,54.58
2022-10-05T09:33:28.830Z,54.98
2022-10-05T09:34:28.810Z,54.55
2022-10-05T09:35:28.827Z,54.72
2022-10-05T09:36:28.810Z,53.52
2022-10-05T09:37:28.784Z,53.39
2022-10-05T09:38:28.768Z,52.47
2022-10-05T09:39:28.760Z,52.44
2022-10-05T09:40:28.747Z,51.24
2022-10-05T09:41:28.741Z,51.21
2022-10-05T09:42:28.739Z,50.62
2022-10-05T09:43:28.729Z,51.39
2022-10-05T09:44:28.708Z,51.69
2022-10-05T09:45:28.704Z,50.79
2022-10-05T09:46:28.699Z,50.42
2022-10-05T09:47:28.684Z,50.92
2022-10-05T09:48:28.659Z,51.34
2022-10-05T09:49:28.648Z,52.07
2022-10-05T09:50:28.644Z,53.30
2022-10-05T09:51:28.626Z,54.10
2022-10-05T09:52:28.620Z,54.58
2022-10-05T09:53:28.621Z,53.07
2022-10-05T09:54:28.625Z,53.55
2022-10-05T09:55:28.586Z,51.51
2022-10-05T09:57:28.568Z,51.21
2022-10-05T09:58:28.561Z,52.72
2022-10-05T09:59:28.552Z,51.49
2022-10-05T10:00:28.539Z,50.59
2022-10-05T10:01:33.643Z,52.17
2022-10-05T10:02:28.642Z,53.17
2022-10-05T10:03:28.579Z,53.39
2022-10-05T10:04:28.492Z,53.90
2022-10-05T10:05:28.474Z,53.17
2022-10-05T10:06:28.467Z,53.97
2022-10-05T10:07:28.458Z,53.05
2022-10-05T10:08:28.460Z,52.39
2022-10-05T10:09:28.436Z,51.79
2022-10-05T10:10:28.428Z,51.89
2022-10-05T10:11:28.411Z,51.37
2022-10-05T10:12:28.415Z,50.64
2022-10-05T10:13:28.391Z,51.07
2022-10-05T10:14:28.380Z,50.87
2022-10-05T10:15:28.367Z,50.37
2022-10-05T10:16:28.381Z,51.39
2022-10-05T10:17:28.345Z,51.79
2022-10-05T10:18:28.342Z,52.07
2022-10-05T10:19:28.332Z,51.07
2022-10-05T10:20:28.319Z,51.57
2022-10-05T10:21:28.312Z,50.67
2022-10-05T10:22:28.298Z,51.27
2022-10-05T10:23:28.285Z,51.19
2022-10-05T10:24:28.286Z,51.14
2022-10-05T10:25:28.265Z,50.20
2022-10-05T10:26:28.255Z,49.55
2022-10-05T10:27:28.238Z,48.50
2022-10-05T10:28:28.251Z,46.46
2022-10-05T10:29:28.238Z,46.46
2022-10-05T10:30:28.891Z,46.16
2022-10-05T10:31:28.269Z,46.34
2022-10-05T10:32:28.188Z,45.92
2022-10-05T10:33:28.177Z,46.61
2022-10-05T10:34:28.171Z,46.51
2022-10-05T10:36:28.147Z,44.80
2022-10-05T10:37:28.132Z,44.82
2022-10-05T10:38:28.124Z,45.32
2022-10-05T10:39:28.112Z,46.72
2022-10-05T10:40:28.131Z,45.74
2022-10-05T10:41:28.090Z,47.48
2022-10-05T10:42:28.101Z,47.90
2022-10-05T10:43:28.065Z,48.20
2022-10-05T10:44:28.085Z,48.60
2022-10-05T10:45:28.047Z,48.30
2022-10-05T10:46:28.102Z,48.10
2022-10-05T10:47:28.071Z,48.40
2022-10-05T10:48:28.028Z,48.22
2022-10-05T10:49:28.010Z,48.43
2022-10-05T10:50:27.996Z,48.40
2022-10-05T10:51:27.986Z,48.58
2022-10-05T10:52:27.975Z,48.35
2022-10-05T10:53:27.971Z,47.02
2022-10-05T10:54:27.954Z,47.09
2022-10-05T10:55:27.945Z,45.48
2022-10-05T10:56:27.931Z,44.88
2022-10-05T10:57:27.919Z,45.60
2022-10-05T10:58:27.938Z,45.57
2022-10-05T10:59:30.763Z,45.30
2022-10-05T11:00:27.898Z,45.79
2022-10-05T11:01:27.909Z,45.82
2022-10-05T11:02:27.913Z,46.31
2022-10-05T11:03:27.856Z,46.09
2022-10-05T11:04:27.855Z,45.72
2022-10-05T11:05:27.834Z,46.54
2022-10-05T11:06:27.826Z,46.84
2022-10-05T11:07:27.812Z,46.51
2022-10-05T11:08:27.825Z,46.66
2022-10-05T11:09:27.790Z,46.86
2022-10-05T11:10:27.781Z,47.14
2022-10-05T11:11:27.769Z,46.59
2022-10-05T11:12:32.069Z,45.90
2022-10-05T11:13:27.759Z,45.48
2022-10-05T11:14:27.761Z,44.96
2022-10-05T11:15:27.728Z,44.74
2022-10-05T11:16:27.735Z,44.76
2022-10-05T11:17:27.706Z,44.96
2022-10-05T11:18:27.697Z,44.76
2022-10-05T11:19:35.242Z,44.34
2022-10-05T11:20:27.681Z,45.03
2022-10-05T11:21:27.667Z,44.64
2022-10-05T11:22:27.660Z,44.14
2022-10-05T11:23:27.641Z,43.94
2022-10-05T11:24:27.639Z,44.98
2022-10-05T11:25:27.630Z,45.65
2022-10-05T11:26:27.619Z,45.15
2022-10-05T11:27:27.616Z,44.96
2022-10-05T11:28:27.713Z,44.46
2022-10-05T11:29:27.576Z,44.76
2022-10-05T11:30:27.569Z,45.15
2022-10-05T11:31:27.629Z,45.43
2022-10-05T11:32:27.550Z,44.74
2022-10-05T11:33:27.552Z,44.81
2022-10-05T11:34:27.527Z,44.76
2022-10-05T11:35:27.512Z,45.28
2022-10-05T11:36:27.512Z,45.48
2022-10-05T11:37:27.490Z,45.06
2022-10-05T11:38:27.488Z,45.26
2022-10-05T11:39:27.483Z,44.24
2022-10-05T11:40:27.463Z,44.14
2022-10-05T11:41:27.455Z,44.02
2022-10-05T11:42:27.445Z,43.60
2022-10-05T11:43:27.430Z,44.12
2022-10-05T11:44:27.430Z,43.98
2022-10-05T11:45:27.408Z,42.37
2022-10-05T11:46:27.518Z,42.39
2022-10-05T11:47:27.427Z,42.61
2022-10-05T11:48:27.392Z,44.04
2022-10-05T11:49:27.368Z,44.44
2022-10-05T11:50:27.383Z,44.22
2022-10-05T11:51:28.835Z,43.54
2022-10-05T11:52:27.336Z,44.56
2022-10-05T11:53:27.324Z,44.78
2022-10-05T11:54:27.321Z,45.92
2022-10-05T11:55:27.304Z,46.22
2022-10-05T11:56:27.440Z,46.37
2022-10-05T11:57:27.283Z,45.03
2022-10-05T11:58:27.275Z,44.46
2022-10-05T11:59:27.269Z,44.56
2022-10-05T12:00:27.253Z,44.66
2022-10-05T12:01:27.239Z,45.08
2022-10-05T12:02:27.251Z,45.67
2022-10-05T12:03:27.287Z,44.98
2022-10-05T12:04:27.210Z,45.60
2022-10-05T12:05:27.200Z,46.44
2022-10-05T12:06:27.206Z,46.51
2022-10-05T12:07:27.175Z,46.94
2022-10-05T12:08:27.167Z,47.68
2022-10-05T12:09:27.153Z,47.75
2022-10-05T12:10:27.147Z,46.72
2022-10-05T12:11:27.172Z,45.78
2022-10-05T12:12:27.139Z,44.66
2022-10-05T12:13:27.116Z,44.92
2022-10-05T12:14:27.102Z,43.08
2022-10-05T12:15:27.092Z,41.67
2022-10-05T12:16:27.121Z,41.89
2022-10-05T12:17:27.069Z,42.39
2022-10-05T12:18:27.068Z,42.39
2022-10-05T12:19:27.053Z,42.58
2022-10-05T12:20:27.176Z,43.18
2022-10-05T12:21:27.026Z,42.37
2022-10-05T12:22:27.034Z,42.37
2022-10-05T12:23:27.012Z,41.36
2022-10-05T12:24:27.172Z,41.44
2022-10-05T12:25:26.991Z,40.62
2022-10-05T12:26:26.975Z,40.34
2022-10-05T12:27:26.973Z,41.58
2022-10-05T12:28:26.989Z,42.91
2022-10-05T12:29:26.944Z,43.40
2022-10-05T12:30:26.930Z,42.66
2022-10-05T12:31:26.954Z,42.25
2022-10-05T12:32:26.909Z,41.33
2022-10-05T12:33:26.911Z,42.11
2022-10-05T12:34:26.896Z,40.80
2022-10-05T12:35:43.949Z,39.51
2022-10-05T12:36:35.984Z,39.50
2022-10-05T12:37:26.863Z,39.10
2022-10-05T12:38:26.869Z,38.59
2022-10-05T12:39:26.851Z,38.39
2022-10-05T12:40:26.832Z,39.31
2022-10-05T12:41:26.825Z,39.10
2022-10-05T12:42:26.809Z,39.28
2022-10-05T12:43:26.805Z,39.18
2022-10-05T12:44:26.787Z,38.70
2022-10-05T12:45:26.807Z,38.60
2022-10-05T12:46:26.776Z,39.22
2022-10-05T12:47:26.753Z,39.63
2022-10-05T12:48:26.746Z,39.93
2022-10-05T12:49:26.734Z,40.34
2022-10-05T12:50:26.723Z,41.06
2022-10-05T12:51:26.712Z,41.04
2022-10-05T12:52:26.711Z,40.86
2022-10-05T12:53:26.688Z,40.84
2022-10-05T12:54:26.685Z,40.82